Time;durP1;ratioP1;P1;durP2;ratioP2;P2;SDS_P1;SDS_P2;PMS_P1;PMS_P2;Temp;Humidity;BMP_temperature;BMP_pressure;BME280_temperature;BME280_humidity;BME280_pressure;Samples;Min_cycle;Max_cycle;Signal;HPM_P1;HPM_P2
2022/08/06 00:01:05;;;;;;;8.70;8.00;;;;;;;17.06;95.08;101121.13;4985157;28;20562;-75
2022/08/06 00:03:30;;;;;;;8.85;8.25;;;;;;;17.11;95.55;101099.69;4983801;28;20047;-74
2022/08/06 00:05:56;;;;;;;9.30;8.60;;;;;;;17.14;95.33;101098.75;4984160;28;20034;-74
2022/08/06 00:08:21;;;;;;;10.40;9.30;;;;;;;17.23;94.54;101101.16;4984958;28;20042;-74
2022/08/06 00:10:46;;;;;;;9.32;8.63;;;;;;;17.27;94.71;101094.84;4982913;28;20034;-74
2022/08/06 00:13:11;;;;;;;8.77;7.88;;;;;;;17.29;94.68;101104.56;4985603;28;20038;-74
2022/08/06 00:15:37;;;;;;;9.98;9.13;;;;;;;17.29;94.60;101087.66;4982668;28;20050;-74
2022/08/06 00:18:02;;;;;;;9.85;9.05;;;;;;;17.25;94.80;101086.00;4965955;28;20046;-74
2022/08/06 00:20:28;;;;;;;10.18;9.38;;;;;;;17.23;94.00;101099.38;4982154;28;20548;-74
2022/08/06 00:22:53;;;;;;;11.07;10.27;;;;;;;17.24;93.18;101105.59;4983682;28;20041;-74
2022/08/06 00:25:22;;;;;;;10.75;9.85;;;;;;;17.21;91.12;101105.66;4976162;28;20030;-74
2022/08/06 00:27:47;;;;;;;10.68;9.80;;;;;;;17.30;90.75;101118.78;4982300;28;20125;-74
2022/08/06 00:30:12;;;;;;;11.73;10.82;;;;;;;17.34;92.31;101117.78;4988645;28;20472;-74
2022/08/06 00:32:38;;;;;;;11.32;10.25;;;;;;;17.36;91.62;101125.75;4982757;28;20043;-74
2022/08/06 00:35:04;;;;;;;11.07;10.27;;;;;;;17.37;91.31;101123.06;4983897;28;20054;-74
2022/08/06 00:37:31;;;;;;;11.32;10.30;;;;;;;17.28;91.52;101121.47;4984127;28;20043;-74
2022/08/06 00:40:00;;;;;;;11.32;10.32;;;;;;;17.33;92.51;101136.50;4982487;28;20034;-74
2022/08/06 00:42:27;;;;;;;10.88;9.98;;;;;;;17.38;90.74;101135.47;4949738;28;20511;-74
2022/08/06 00:44:53;;;;;;;11.40;10.57;;;;;;;17.39;91.39;101131.88;4984992;28;20027;-74
2022/08/06 00:47:18;;;;;;;11.70;10.73;;;;;;;17.50;89.93;101137.84;4988170;28;20040;-75
2022/08/06 00:49:43;;;;;;;11.68;10.70;;;;;;;17.47;89.56;101137.91;4984528;28;20086;-74
2022/08/06 00:52:09;;;;;;;11.02;10.30;;;;;;;17.48;89.13;101130.78;4980868;28;20488;-74
2022/08/06 00:54:34;;;;;;;12.20;11.10;;;;;;;17.41;89.17;101126.53;4984997;28;20497;-74
2022/08/06 00:56:59;;;;;;;11.20;10.30;;;;;;;17.42;89.29;101131.81;4981823;28;20505;-74
2022/08/06 00:59:25;;;;;;;10.30;9.50;;;;;;;17.45;89.18;101128.22;4985565;28;20485;-74
2022/08/06 01:01:50;;;;;;;11.38;10.57;;;;;;;17.35;89.12;101127.56;4980826;28;20049;-74
2022/08/06 01:04:16;;;;;;;11.20;10.35;;;;;;;17.41;88.62;101135.41;4983241;28;20062;-74
2022/08/06 01:06:41;;;;;;;12.15;11.15;;;;;;;17.33;89.02;101129.38;4965067;28;20054;-74
2022/08/06 01:09:08;;;;;;;11.68;10.48;;;;;;;17.29;88.92;101123.25;4984491;28;20040;-75
2022/08/06 01:11:33;;;;;;;11.15;10.05;;;;;;;17.09;89.01;101125.50;4984475;28;20513;-74
2022/08/06 01:13:58;;;;;;;10.60;9.82;;;;;;;17.02;88.94;101138.09;4981918;28;20109;-75
2022/08/06 01:16:35;;;;;;;12.10;11.07;;;;;;;17.00;88.56;101131.94;4983552;28;20041;-75
2022/08/06 01:19:25;;;;;;;10.65;9.75;;;;;;;16.93;88.47;101137.47;4984293;28;20555;-73
2022/08/06 01:22:13;;;;;;;10.45;9.68;;;;;;;16.78;88.67;101152.88;4983962;28;20507;-74
2022/08/06 01:25:23;;;;;;;11.68;10.68;;;;;;;16.69;88.78;101150.38;4966884;28;20041;-74
2022/08/06 01:27:55;;;;;;;10.85;10.05;;;;;;;16.64;87.64;101161.13;4984726;28;20042;-74
2022/08/06 01:30:27;;;;;;;9.35;8.75;;;;;;;16.57;86.08;101162.16;4974757;28;20042;-75
2022/08/06 01:33:14;;;;;;;8.63;7.70;;;;;;;16.54;81.78;101164.91;4981960;28;20042;-75
2022/08/06 01:35:44;;;;;;;8.15;7.55;;;;;;;16.48;81.14;101173.03;4983489;28;20030;-75
2022/08/06 01:38:13;;;;;;;9.40;7.10;;;;;;;16.48;79.67;101189.00;4968921;28;20161;-75
2022/08/06 01:40:42;;;;;;;7.43;6.93;;;;;;;16.51;78.93;101169.44;4963766;28;20129;-75
2022/08/06 01:43:13;;;;;;;8.07;7.47;;;;;;;16.53;78.25;101179.16;4973566;28;20107;-75
2022/08/06 01:45:40;;;;;;;7.15;6.60;;;;;;;16.54;78.37;101188.88;4982541;28;20177;-75
2022/08/06 01:48:13;;;;;;;6.90;6.30;;;;;;;16.59;76.29;101183.47;4975207;28;20552;-75
2022/08/06 01:50:44;;;;;;;7.07;6.57;;;;;;;16.53;75.59;101179.16;4980298;28;20037;-75
2022/08/06 01:53:17;;;;;;;7.55;6.95;;;;;;;16.51;75.96;101183.63;4982537;28;20035;-75
2022/08/06 01:55:47;;;;;;;7.45;6.80;;;;;;;16.50;75.38;101197.81;4980826;28;20043;-75
2022/08/06 01:58:15;;;;;;;6.38;5.80;;;;;;;16.52;75.40;101200.47;4980572;28;20125;-75
2022/08/06 02:00:44;;;;;;;7.78;7.18;;;;;;;16.50;74.42;101208.50;4982342;28;20045;-76
2022/08/06 02:03:16;;;;;;;7.88;7.38;;;;;;;16.52;73.43;101211.13;4982929;28;20038;-76
2022/08/06 02:05:43;;;;;;;6.88;6.40;;;;;;;16.48;73.98;101220.09;4980926;28;20035;-76
2022/08/06 02:08:12;;;;;;;7.63;7.03;;;;;;;16.47;74.33;101226.34;4982819;28;20030;-76
2022/08/06 02:10:39;;;;;;;7.47;6.65;;;;;;;16.46;73.71;101222.78;4966884;28;20074;-76
2022/08/06 02:13:05;;;;;;;7.47;6.85;;;;;;;16.48;73.56;101228.97;4975311;28;20116;-76
2022/08/06 02:15:34;;;;;;;7.50;7.00;;;;;;;16.48;73.52;101231.66;4984069;28;20042;-76
2022/08/06 02:18:03;;;;;;;6.75;6.15;;;;;;;16.42;73.49;101239.72;4983149;28;20092;-76
2022/08/06 02:20:34;;;;;;;7.72;7.10;;;;;;;16.38;72.62;101243.38;4980522;28;20045;-76
2022/08/06 02:23:02;;;;;;;6.88;6.38;;;;;;;16.36;71.87;101242.53;4962974;28;20129;-76
2022/08/06 02:25:29;;;;;;;6.60;6.10;;;;;;;16.31;72.78;101258.59;4963372;28;20034;-77
2022/08/06 02:27:57;;;;;;;8.07;6.93;;;;;;;16.39;71.72;101255.78;4982535;28;20712;-77
2022/08/06 02:30:25;;;;;;;7.45;6.95;;;;;;;16.36;71.16;101263.84;4982636;28;20045;-77
2022/08/06 02:32:50;;;;;;;7.88;7.20;;;;;;;16.38;71.42;101257.56;4963133;28;20533;-77
2022/08/06 02:35:16;;;;;;;7.30;6.80;;;;;;;16.32;70.78;101272.78;4983741;28;20143;-77
2022/08/06 02:37:47;;;;;;;8.02;7.53;;;;;;;16.24;71.02;101258.72;4963989;28;20042;-77
2022/08/06 02:40:21;;;;;;;8.15;7.45;;;;;;;16.09;70.71;101268.75;4964927;28;20488;-77
2022/08/06 02:42:56;;;;;;;8.40;7.80;;;;;;;16.08;69.89;101258.13;4966646;28;20030;-77
2022/08/06 02:45:33;;;;;;;8.05;7.30;;;;;;;16.02;69.96;101269.75;4983779;28;20033;-77
2022/08/06 02:48:25;;;;;;;9.05;8.38;;;;;;;15.72;70.82;101272.03;4972930;28;20043;-78
2022/08/06 02:50:52;;;;;;;8.73;7.93;;;;;;;15.78;70.17;101269.25;4981281;28;20109;-78
2022/08/06 02:53:22;;;;;;;8.52;7.93;;;;;;;15.74;70.04;101285.28;4983207;28;20066;-78
2022/08/06 02:55:50;;;;;;;8.25;7.60;;;;;;;15.72;69.58;101288.00;4983556;28;20042;-78
2022/08/06 02:58:22;;;;;;;9.07;8.30;;;;;;;15.71;68.83;101296.84;4964605;28;20184;-77
2022/08/06 03:00:50;;;;;;;8.00;7.50;;;;;;;15.66;69.38;101301.31;4981487;28;20041;-77
2022/08/06 03:03:16;;;;;;;10.18;9.55;;;;;;;15.70;67.94;101310.19;4982101;28;20343;-78
2022/08/06 03:05:44;;;;;;;8.20;7.65;;;;;;;15.58;69.02;101295.25;4962955;28;20042;-77
2022/08/06 03:08:14;;;;;;;9.32;8.63;;;;;;;15.62;68.20;101310.28;4985492;28;20085;-77
2022/08/06 03:10:40;;;;;;;9.68;9.02;;;;;;;15.46;68.50;101316.72;4967923;28;20090;-77
2022/08/06 03:13:08;;;;;;;7.78;7.28;;;;;;;15.34;68.94;101308.00;4969017;28;20034;-77
2022/08/06 03:15:34;;;;;;;9.18;8.30;;;;;;;15.37;68.61;101314.19;4986648;28;20054;-77
2022/08/06 03:18:03;;;;;;;9.15;8.65;;;;;;;15.31;68.71;101308.03;4985113;28;20046;-77
2022/08/06 03:20:31;;;;;;;8.23;7.53;;;;;;;15.17;68.92;101323.31;4988064;28;20030;-77
2022/08/06 03:22:59;;;;;;;8.70;8.20;;;;;;;15.17;68.95;101322.41;4967683;28;20031;-77
2022/08/06 03:25:26;;;;;;;9.00;8.50;;;;;;;15.10;68.19;101340.22;4985833;28;20543;-77
2022/08/06 03:27:53;;;;;;;9.52;8.88;;;;;;;15.02;68.54;101332.34;4969628;28;20151;-77
2022/08/06 03:30:20;;;;;;;7.95;7.50;;;;;;;14.96;69.14;101335.06;4989216;28;20038;-77
2022/08/06 03:32:46;;;;;;;8.32;7.82;;;;;;;14.84;68.84;101336.06;4989601;28;20157;-77
2022/08/06 03:35:12;;;;;;;8.23;7.72;;;;;;;14.80;69.02;101341.44;4984823;28;20038;-77
2022/08/06 03:37:38;;;;;;;9.20;8.70;;;;;;;14.82;68.76;101344.97;4986409;28;20045;-77
2022/08/06 03:40:05;;;;;;;8.05;7.45;;;;;;;14.79;68.91;101342.34;4990230;28;20417;-77
2022/08/06 03:42:31;;;;;;;8.02;7.50;;;;;;;14.78;68.90;101360.06;4976886;28;20042;-76
2022/08/06 03:44:56;;;;;;;8.00;7.50;;;;;;;14.74;68.80;101355.66;4962943;28;20033;-77
2022/08/06 03:47:24;;;;;;;8.40;7.70;;;;;;;14.74;69.16;101366.28;4983982;28;20065;-77
2022/08/06 03:50:01;;;;;;;6.68;6.18;;;;;;;14.74;69.01;101358.31;4981769;28;20503;-76
2022/08/06 03:52:31;;;;;;;7.47;7.07;;;;;;;14.65;68.98;101364.63;4986413;28;20034;-77
2022/08/06 03:55:02;;;;;;;8.57;7.88;;;;;;;14.59;69.42;101371.75;4985036;28;20038;-77
2022/08/06 03:57:35;;;;;;;7.82;7.13;;;;;;;14.56;69.32;101380.63;4985757;28;20045;-76
2022/08/06 04:00:01;;;;;;;8.18;7.68;;;;;;;14.53;69.19;101380.66;4986096;28;20099;-77
2022/08/06 04:02:37;;;;;;;8.32;7.70;;;;;;;14.55;68.86;101391.28;4985574;28;20030;-77
2022/08/06 04:05:03;;;;;;;6.90;6.38;;;;;;;14.55;69.16;101386.84;4986392;28;20042;-77
2022/08/06 04:07:30;;;;;;;7.88;7.38;;;;;;;14.58;69.07;101385.94;4983231;28;20129;-77
2022/08/06 04:09:56;;;;;;;8.18;7.57;;;;;;;14.51;69.48;101392.16;4985853;28;20114;-77
2022/08/06 04:12:22;;;;;;;6.63;6.15;;;;;;;14.58;68.99;101392.13;4982770;28;20161;-77
2022/08/06 04:14:48;;;;;;;7.30;6.80;;;;;;;14.61;68.80;101385.91;4984900;28;20038;-77
2022/08/06 04:17:16;;;;;;;7.80;7.30;;;;;;;14.54;69.20;101397.47;4983172;28;20070;-77
2022/08/06 04:19:42;;;;;;;7.95;7.35;;;;;;;14.54;69.25;101392.16;4984318;28;20573;-77
2022/08/06 04:22:08;;;;;;;8.00;7.40;;;;;;;14.61;68.79;101401.84;4990974;28;20125;-77
2022/08/06 04:24:33;;;;;;;9.82;6.78;;;;;;;14.64;68.93;101405.34;4988562;28;20077;-77
2022/08/06 04:27:04;;;;;;;7.43;6.93;;;;;;;14.74;68.34;101403.50;4984755;28;20054;-77
2022/08/06 04:29:32;;;;;;;8.80;7.55;;;;;;;14.78;68.12;101399.94;4982761;28;20505;-77
2022/08/06 04:31:59;;;;;;;8.63;8.13;;;;;;;14.75;68.74;101402.63;4982094;28;20437;-77
2022/08/06 04:34:26;;;;;;;7.30;6.78;;;;;;;14.77;69.11;101411.44;4984759;28;20828;-77
2022/08/06 04:36:53;;;;;;;7.35;6.85;;;;;;;14.82;68.60;101412.28;4966728;28;20043;-76
2022/08/06 04:39:20;;;;;;;7.40;6.95;;;;;;;14.84;68.13;101417.59;4983120;28;20042;-77
2022/08/06 04:41:45;;;;;;;8.00;7.40;;;;;;;14.85;68.02;101414.91;4985037;28;20038;-77
2022/08/06 04:44:11;;;;;;;7.60;7.18;;;;;;;14.89;68.22;101429.94;4982095;28;20042;-76
2022/08/06 04:46:38;;;;;;;8.13;7.63;;;;;;;14.94;67.53;101429.03;4967266;28;20038;-76
2022/08/06 04:49:04;;;;;;;9.32;8.52;;;;;;;14.98;67.72;101438.72;4965896;28;20054;-76
2022/08/06 04:51:29;;;;;;;7.82;7.35;;;;;;;15.03;67.53;101442.19;4981640;28;20101;-76
2022/08/06 04:53:54;;;;;;;8.27;7.63;;;;;;;15.10;67.25;101442.13;4982801;28;20039;-79
2022/08/06 04:56:20;;;;;;;8.10;7.57;;;;;;;15.16;66.39;101450.94;4965355;28;20097;-77
2022/08/06 04:58:45;;;;;;;9.05;8.50;;;;;;;15.10;66.28;101449.22;4965249;28;20039;-76
2022/08/06 05:01:10;;;;;;;8.85;8.25;;;;;;;15.10;65.85;101451.88;4960604;28;20034;-77
2022/08/06 05:03:36;;;;;;;10.05;9.45;;;;;;;15.19;66.67;101456.22;4983300;28;20399;-76
2022/08/06 05:06:19;;;;;;;9.63;9.02;;;;;;;15.19;65.85;101461.53;4964886;28;20575;-76
2022/08/06 05:08:48;;;;;;;9.77;9.07;;;;;;;15.20;65.78;101461.53;4982503;28;20058;-76
2022/08/06 05:11:22;;;;;;;8.65;8.15;;;;;;;15.24;66.09;101465.03;4982578;28;20048;-75
2022/08/06 05:13:53;;;;;;;8.73;8.13;;;;;;;15.29;66.24;101464.09;4984684;28;20051;-75
2022/08/06 05:16:20;;;;;;;8.50;7.90;;;;;;;15.27;66.33;101459.69;4961894;28;20035;-76
2022/08/06 05:18:50;;;;;;;8.75;8.20;;;;;;;15.30;65.61;101465.88;4985674;28;20298;-76
2022/08/06 05:21:23;;;;;;;8.70;8.20;;;;;;;15.24;65.87;101471.22;4963538;28;20444;-76
2022/08/06 05:23:54;;;;;;;9.07;8.10;;;;;;;15.18;66.56;101468.63;4982302;28;20041;-77
2022/08/06 05:26:21;;;;;;;8.27;7.70;;;;;;;15.22;66.68;101470.38;4982255;28;20038;-76
2022/08/06 05:28:46;;;;;;;8.38;7.88;;;;;;;15.27;66.56;101471.22;4984116;28;20038;-76
2022/08/06 05:31:11;;;;;;;8.60;8.10;;;;;;;15.28;66.38;101472.97;4980715;28;20070;-76
2022/08/06 05:33:38;;;;;;;9.93;8.85;;;;;;;15.32;66.06;101476.47;4966578;28;20065;-76
2022/08/06 05:36:06;;;;;;;8.43;7.93;;;;;;;15.34;66.36;101483.53;4961635;28;20038;-76
2022/08/06 05:38:34;;;;;;;9.07;8.43;;;;;;;15.44;66.00;101491.44;4983025;28;20097;-76
2022/08/06 05:40:59;;;;;;;8.23;7.63;;;;;;;15.40;65.89;101481.69;4981208;28;20053;-76
2022/08/06 05:43:25;;;;;;;8.52;7.95;;;;;;;15.43;66.14;101497.63;4981161;28;20043;-75
2022/08/06 05:45:54;;;;;;;8.57;8.02;;;;;;;15.48;66.25;101493.13;4963458;28;20041;-75
2022/08/06 05:48:21;;;;;;;9.45;8.75;;;;;;;15.53;66.08;101491.31;4984367;28;20062;-75
2022/08/06 05:50:52;;;;;;;8.65;8.15;;;;;;;15.54;65.97;101498.41;4981374;28;20109;-74
2022/08/06 05:53:23;;;;;;;7.88;7.35;;;;;;;15.53;65.99;101499.28;4983888;28;20054;-75
2022/08/06 05:55:57;;;;;;;8.32;7.80;;;;;;;15.53;66.23;101494.84;4984189;28;20038;-75
2022/08/06 05:58:31;;;;;;;8.73;8.02;;;;;;;15.61;66.25;101496.53;4974505;28;20084;-74
2022/08/06 06:01:00;;;;;;;8.93;8.43;;;;;;;15.58;66.21;101497.47;4982768;28;20042;-75
2022/08/06 06:03:26;;;;;;;8.75;7.90;;;;;;;15.65;66.75;101508.94;4968909;28;20039;-74
2022/08/06 06:05:54;;;;;;;9.63;9.02;;;;;;;15.84;66.13;101521.13;4981494;28;20485;-75
2022/08/06 06:08:19;;;;;;;8.93;8.35;;;;;;;15.95;65.59;101515.69;4983819;28;20397;-74
2022/08/06 06:10:45;;;;;;;9.93;7.97;;;;;;;16.10;66.04;101510.16;4980693;28;20077;-75
2022/08/06 06:13:12;;;;;;;7.95;7.45;;;;;;;16.23;64.61;101510.88;4986574;28;20126;-75
2022/08/06 06:15:43;;;;;;;9.02;8.20;;;;;;;16.19;64.73;101522.47;4982232;28;20044;-75
2022/08/06 06:18:30;;;;;;;9.02;8.52;;;;;;;15.97;64.93;101529.84;4976317;28;20081;-75
2022/08/06 06:21:12;;;;;;;9.93;9.18;;;;;;;15.90;65.68;101531.72;4979709;28;20400;-75
2022/08/06 06:23:48;;;;;;;;;;;;;;;15.82;66.29;101535.38;4983819;28;20030;-75
2022/08/06 06:26:37;;;;;;;8.57;7.97;;;;;;;15.78;65.96;101537.19;4977659;28;19917;-75
2022/08/06 06:29:26;;;;;;;7.30;6.70;;;;;;;15.80;66.83;101529.16;4984409;28;20121;-75
2022/08/06 06:32:06;;;;;;;8.00;7.45;;;;;;;15.96;66.37;101531.66;4981521;28;20420;-75
2022/08/06 06:34:50;;;;;;;8.68;8.07;;;;;;;16.10;66.25;101539.44;4981250;28;20038;-75
2022/08/06 06:37:44;;;;;;;8.15;7.63;;;;;;;16.07;63.72;101536.84;4982261;28;20484;-75
2022/08/06 06:40:43;;;;;;;9.23;8.63;;;;;;;16.01;65.87;101536.91;4976602;28;20053;-75
2022/08/06 06:43:21;;;;;;;8.00;7.50;;;;;;;15.94;64.61;101541.44;4963236;28;20034;-75
2022/08/06 06:45:55;;;;;;;8.30;7.70;;;;;;;15.95;65.51;101542.31;4968274;28;20089;-75
2022/08/06 06:48:32;;;;;;;8.55;7.68;;;;;;;15.82;65.56;101540.69;4988351;28;20065;-75
2022/08/06 06:51:02;;;;;;;8.75;7.80;;;;;;;15.93;64.87;101546.78;4983536;28;20038;-75
2022/08/06 06:53:32;;;;;;;8.32;7.65;;;;;;;15.96;64.73;101546.75;4965931;28;20038;-75
2022/08/06 06:55:59;;;;;;;9.43;8.65;;;;;;;16.10;65.42;101560.75;4986459;28;20406;-75
2022/08/06 06:58:37;;;;;;;8.23;7.72;;;;;;;16.31;64.41;101561.38;4987701;28;20065;-75
2022/08/06 07:01:05;;;;;;;8.52;7.78;;;;;;;16.41;63.74;101566.56;4989103;28;20047;-75
2022/08/06 07:03:34;;;;;;;9.45;8.70;;;;;;;16.36;62.96;101564.88;4987417;28;20394;-75
2022/08/06 07:06:02;;;;;;;7.95;7.45;;;;;;;16.32;64.14;101561.38;4990536;28;20382;-75
2022/08/06 07:08:29;;;;;;;8.70;8.10;;;;;;;16.38;63.08;101563.94;4977591;28;20038;-75
2022/08/06 07:10:57;;;;;;;8.75;8.25;;;;;;;16.43;63.19;101566.56;4983373;28;20113;-75
2022/08/06 07:13:24;;;;;;;8.10;7.60;;;;;;;16.43;62.66;101563.88;4988438;28;20038;-76
2022/08/06 07:15:52;;;;;;;8.88;8.38;;;;;;;16.47;62.57;101556.72;4985161;28;20042;-75
2022/08/06 07:18:18;;;;;;;9.18;8.35;;;;;;;16.56;62.79;101565.47;4987327;28;20401;-76
2022/08/06 07:20:45;;;;;;;8.55;8.05;;;;;;;16.70;61.85;101567.94;4984053;28;20121;-75
2022/08/06 07:23:10;;;;;;;9.15;8.57;;;;;;;16.76;60.80;101561.63;4989893;28;20027;-75
2022/08/06 07:25:42;;;;;;;8.85;8.25;;;;;;;16.72;61.01;101557.25;4986003;28;20696;-75
2022/08/06 07:28:10;;;;;;;9.40;8.80;;;;;;;16.79;60.97;101559.84;4977985;28;20037;-75
2022/08/06 07:30:36;;;;;;;9.65;9.05;;;;;;;16.85;60.63;101567.72;4983568;28;20042;-75
2022/08/06 07:33:02;;;;;;;8.48;7.97;;;;;;;16.99;60.01;101564.84;4986349;28;20049;-75
2022/08/06 07:35:28;;;;;;;9.48;8.82;;;;;;;17.09;59.73;101565.56;4983928;28;20038;-75
2022/08/06 07:38:04;;;;;;;9.50;8.90;;;;;;;17.09;59.39;101562.91;4985320;28;20054;-75
2022/08/06 07:40:32;;;;;;;10.02;9.23;;;;;;;17.31;58.52;101560.75;4989765;28;20432;-76
2022/08/06 07:43:23;;;;;;;10.02;9.43;;;;;;;17.34;57.30;101566.00;4989671;28;20097;-75
2022/08/06 07:45:50;;;;;;;10.15;9.55;;;;;;;17.42;56.80;101566.78;4979011;28;20056;-75
2022/08/06 07:48:18;;;;;;;10.88;10.18;;;;;;;17.51;56.37;101566.59;4986314;28;20122;-76
2022/08/06 07:50:48;;;;;;;10.25;9.63;;;;;;;17.68;56.50;101560.06;4987530;28;20374;-76
2022/08/06 07:53:14;;;;;;;8.88;8.05;;;;;;;17.71;55.39;101570.66;4987668;28;20030;-76
2022/08/06 07:55:39;;;;;;;11.63;10.82;;;;;;;17.71;55.73;101563.56;4967145;28;20039;-75
2022/08/06 07:58:06;;;;;;;12.02;10.43;;;;;;;17.93;54.60;101560.50;4986059;28;20069;-75
2022/08/06 08:00:34;;;;;;;10.45;9.85;;;;;;;18.10;54.50;101565.47;4969029;28;20043;-75
2022/08/06 08:08:30;;;;;;;10.52;9.73;;;;;;;18.22;53.84;101561.69;4982766;28;20101;-76
2022/08/06 08:10:55;;;;;;;11.18;10.48;;;;;;;18.50;53.24;101561.97;4987914;28;20556;-75
2022/08/06 08:13:22;;;;;;;10.20;9.55;;;;;;;18.69;50.51;101568.63;4989450;28;20030;-75
2022/08/06 08:15:48;;;;;;;10.73;9.75;;;;;;;18.73;51.03;101565.00;4982543;28;20046;-76
2022/08/06 08:18:14;;;;;;;10.88;9.98;;;;;;;18.84;51.56;101551.38;4985513;28;20046;-75
2022/08/06 08:20:41;;;;;;;11.95;10.80;;;;;;;18.96;51.07;101566.25;4981793;28;20041;-76
2022/08/06 08:23:10;;;;;;;9.40;8.75;;;;;;;18.99;50.97;101566.16;4987453;28;20390;-75
2022/08/06 08:25:35;;;;;;;11.90;11.20;;;;;;;18.71;51.65;101571.28;4986418;28;20027;-75
2022/08/06 08:28:00;;;;;;;9.63;9.02;;;;;;;18.57;52.64;101566.22;4985998;28;20042;-75
2022/08/06 08:30:26;;;;;;;11.82;10.55;;;;;;;18.56;51.83;101561.81;4982489;28;20034;-76
2022/08/06 08:32:51;;;;;;;11.18;10.57;;;;;;;18.67;51.51;101570.47;4984562;28;20046;-75
2022/08/06 08:35:16;;;;;;;10.38;9.77;;;;;;;18.59;50.58;101562.63;4962963;28;20039;-75
2022/08/06 08:37:42;;;;;;;10.73;9.98;;;;;;;18.78;51.41;101563.09;4984030;28;20034;-76
2022/08/06 08:40:08;;;;;;;12.18;11.43;;;;;;;19.16;50.21;101566.63;4983020;28;20073;-76
2022/08/06 08:42:39;;;;;;;9.95;9.30;;;;;;;19.27;48.15;101569.91;4984649;28;20042;-75
2022/08/06 08:45:05;;;;;;;10.35;9.70;;;;;;;19.00;49.22;101562.59;4974835;28;20485;-75
2022/08/06 08:47:33;;;;;;;9.60;9.00;;;;;;;18.75;49.71;101571.19;4983982;28;20049;-75
2022/08/06 08:50:02;;;;;;;8.23;7.72;;;;;;;18.71;48.83;101571.28;4981398;28;20074;-75
2022/08/06 08:52:32;;;;;;;8.73;8.15;;;;;;;18.78;49.38;101567.56;4984721;28;20034;-76
2022/08/06 08:55:01;;;;;;;8.90;8.40;;;;;;;19.03;49.00;101567.84;4982264;28;20057;-75
2022/08/06 08:57:28;;;;;;;11.95;11.00;;;;;;;19.11;48.57;101575.69;4983367;28;20053;-75
2022/08/06 08:59:53;;;;;;;8.90;8.30;;;;;;;19.30;47.69;101565.41;4984034;28;20042;-75
2022/08/06 09:02:19;;;;;;;9.35;8.80;;;;;;;19.27;47.02;101569.03;4981703;28;20046;-76
2022/08/06 09:04:44;;;;;;;10.85;10.23;;;;;;;19.33;47.21;101562.63;4984879;28;20460;-75
2022/08/06 09:07:10;;;;;;;10.05;9.43;;;;;;;19.63;47.43;101556.47;4980862;28;20042;-76
2022/08/06 09:09:38;;;;;;;9.82;9.25;;;;;;;19.96;46.34;101558.25;4961841;28;20045;-76
2022/08/06 09:12:03;;;;;;;10.20;9.55;;;;;;;20.01;46.04;101551.84;4984749;28;20081;-76
2022/08/06 09:14:29;;;;;;;10.70;9.90;;;;;;;19.75;45.43;101557.06;4985321;28;20066;-75
2022/08/06 09:16:56;;;;;;;9.35;8.85;;;;;;;19.40;46.10;101573.16;4985479;28;20042;-75
2022/08/06 09:19:21;;;;;;;9.07;8.50;;;;;;;19.28;46.72;101562.75;4982948;28;20129;-75
2022/08/06 09:21:47;;;;;;;9.25;8.75;;;;;;;19.30;46.56;101560.03;4980386;28;20088;-75
2022/08/06 09:24:12;;;;;;;11.30;10.38;;;;;;;19.70;45.47;101562.56;4982460;28;20038;-76
2022/08/06 09:26:58;;;;;;;9.52;8.93;;;;;;;19.99;44.95;101561.75;4965254;28;20026;-75
2022/08/06 09:29:23;;;;;;;9.35;8.48;;;;;;;20.22;42.91;101563.72;4977138;28;20042;-75
2022/08/06 09:31:49;;;;;;;11.50;10.75;;;;;;;20.50;41.70;101560.22;4982212;28;20041;-76
2022/08/06 09:34:14;;;;;;;11.15;10.45;;;;;;;20.40;41.69;101553.38;4983623;28;20042;-75
2022/08/06 09:36:47;;;;;;;24.08;22.85;;;;;;;20.41;40.37;101558.72;4981149;28;20042;-75
2022/08/06 09:39:13;;;;;;;8.90;8.40;;;;;;;20.83;40.72;101555.63;4964878;28;20041;-76
2022/08/06 09:41:50;;;;;;;13.57;12.88;;;;;;;21.12;40.21;101564.53;4982393;28;20057;-76
2022/08/06 09:44:15;;;;;;;8.40;7.90;;;;;;;21.30;37.36;101557.63;4984211;28;20117;-75
2022/08/06 09:46:46;;;;;;;23.17;21.95;;;;;;;20.88;37.86;101561.72;4981581;28;20521;-76
2022/08/06 09:49:13;;;;;;;8.02;7.45;;;;;;;20.70;39.56;101556.97;4983669;28;20046;-76
2022/08/06 09:51:38;;;;;;;11.93;11.32;;;;;;;20.89;40.11;101571.53;4979790;28;20068;-75
2022/08/06 09:54:06;;;;;;;10.68;10.07;;;;;;;20.88;39.34;101561.72;4982379;28;20070;-75
2022/08/06 09:56:32;;;;;;;10.52;9.70;;;;;;;20.93;39.88;101556.19;4980879;28;20500;-75
2022/08/06 09:59:00;;;;;;;8.57;8.07;;;;;;;20.97;39.40;101557.84;4965663;28;20065;-76
2022/08/06 10:01:27;;;;;;;8.52;7.88;;;;;;;21.17;38.81;101559.88;4982051;28;20038;-76
2022/08/06 10:03:55;;;;;;;10.38;9.77;;;;;;;21.24;38.29;101550.66;4981365;28;20481;-75
2022/08/06 10:06:21;;;;;;;9.20;8.70;;;;;;;21.29;38.96;101554.06;4983852;28;20037;-75
2022/08/06 10:08:48;;;;;;;11.40;10.48;;;;;;;21.44;38.56;101545.53;4980998;28;20066;-76
2022/08/06 10:11:14;;;;;;;10.80;9.98;;;;;;;21.29;39.22;101554.06;4982230;28;20044;-75
2022/08/06 10:13:46;;;;;;;9.98;9.48;;;;;;;21.26;37.86;101551.50;4982524;28;20038;-76
2022/08/06 10:16:16;;;;;;;;;;;;;;;21.16;36.79;101564.34;4981706;28;20086;-76
2022/08/06 10:18:44;;;;;;;9.75;9.13;;;;;;;21.13;38.10;101552.84;4983469;28;19920;-75
2022/08/06 10:21:13;;;;;;;8.70;8.00;;;;;;;21.42;38.02;101543.81;4981473;28;20026;-75
2022/08/06 10:23:43;;;;;;;11.43;10.82;;;;;;;21.67;38.17;101554.56;4983267;28;20469;-76
2022/08/06 10:26:11;;;;;;;9.40;8.75;;;;;;;21.67;38.06;101559.94;4973158;28;20097;-76
2022/08/06 10:28:38;;;;;;;10.27;9.48;;;;;;;21.68;37.52;101542.88;4975894;28;20038;-75
2022/08/06 10:31:07;;;;;;;9.90;9.32;;;;;;;21.76;37.32;101543.47;4984193;28;20085;-75
2022/08/06 10:34:01;;;;;;;15.48;14.68;;;;;;;21.85;36.39;101544.94;4988325;28;20513;-75
2022/08/06 10:36:34;;;;;;;14.02;13.13;;;;;;;21.91;36.47;101541.16;4962897;28;20055;-76
2022/08/06 10:39:00;;;;;;;9.75;9.15;;;;;;;21.75;36.77;101539.06;4966414;28;20066;-75
2022/08/06 10:41:27;;;;;;;9.18;8.57;;;;;;;21.77;36.54;101534.50;4987542;28;20030;-76
2022/08/06 10:43:53;;;;;;;10.63;9.95;;;;;;;21.91;35.37;101535.78;4986152;28;20034;-76
2022/08/06 10:46:19;;;;;;;12.38;11.70;;;;;;;21.76;36.33;101530.03;4980106;28;20469;-76
2022/08/06 10:48:46;;;;;;;10.30;9.70;;;;;;;21.76;36.68;101537.22;4983047;28;20074;-76
2022/08/06 10:51:13;;;;;;;10.13;9.52;;;;;;;21.85;36.93;101524.34;4980153;28;20112;-75
2022/08/06 10:53:41;;;;;;;21.95;20.65;;;;;;;22.02;37.44;101521.00;4983704;28;20030;-75
2022/08/06 10:56:08;;;;;;;11.48;10.77;;;;;;;22.15;36.56;101526.78;4980199;28;20042;-75
2022/08/06 10:58:36;;;;;;;12.75;11.90;;;;;;;22.24;36.10;101521.09;4985533;28;20413;-75
2022/08/06 11:01:06;;;;;;;12.10;11.23;;;;;;;22.23;35.96;101516.63;4982012;28;20078;-76
2022/08/06 11:03:43;;;;;;;9.85;8.98;;;;;;;22.14;36.05;101527.75;4982027;28;20113;-76
2022/08/06 11:06:34;;;;;;;10.23;9.63;;;;;;;22.23;35.27;101516.63;4985792;28;20023;-75
2022/08/06 11:09:40;;;;;;;8.82;8.23;;;;;;;22.40;34.68;101518.69;4980503;28;20078;-76
2022/08/06 11:12:40;;;;;;;12.07;11.27;;;;;;;22.29;33.98;101508.31;4974563;28;20037;-75
2022/08/06 11:15:07;;;;;;;11.48;10.63;;;;;;;22.63;34.21;101514.16;4972457;28;20050;-76
2022/08/06 11:17:43;;;;;;;9.55;9.02;;;;;;;22.93;33.66;101507.53;4981892;28;20042;-75
2022/08/06 11:20:31;;;;;;;9.60;9.00;;;;;;;23.05;33.20;101502.56;4982868;28;20101;-76
2022/08/06 11:22:57;;;;;;;9.93;9.35;;;;;;;22.93;33.43;101491.38;4982775;28;20046;-76
2022/08/06 11:25:42;;;;;;;11.43;10.73;;;;;;;23.01;32.84;101496.47;4982968;28;20046;-75
2022/08/06 11:28:12;;;;;;;40.22;37.78;;;;;;;22.86;32.99;101505.16;4982754;28;20042;-76
2022/08/06 11:30:59;;;;;;;11.65;10.75;;;;;;;22.69;32.85;101487.91;4983159;28;20113;-76
2022/08/06 11:33:47;;;;;;;9.23;8.52;;;;;;;22.80;33.10;101478.50;4979592;28;20054;-76
2022/08/06 11:36:43;;;;;;;9.95;9.45;;;;;;;23.14;32.81;101476.13;4968956;28;20416;-76
2022/08/06 11:39:09;;;;;;;9.80;9.18;;;;;;;23.20;32.86;101472.28;4976697;28;20509;-76